Morgenster — PHMY — position and weather

sailwx.info

Track history (hours):
 
Tides and Currents Weather Stations Pressure Air Temp Water Temp Dewpoint Dewpoint Depression Visibility Wind Speed Wind Dir Waves Ship Positions

Morgenster

Last reported at 2016-Jul-23 17:07 UTC. Time now 2016-Jul-23 19:15 UTC.
Position N 38°43' W 009°07'.

Length 38 m; draft 2.4 m.

Type: Sailing vessel. MMSI: 245136000.

Date/timePositionNaut miles runAvg speedWind from/ knotsBaromVisibWave heightAir tempDewpointWater temp
2016-Jul-23 17:07N 38°43' W 009°07'0 0.0
2016-Jul-22 20:28N 38°43' W 009°07'0 0.0
2016-Jul-22 17:25N 38°43' W 009°07'0 0.0
2016-Jul-22 16:31N 38°43' W 009°07'0 0.0
2016-Jul-22 15:25N 38°43' W 009°07'0 0.0
2016-Jul-22 14:31N 38°43' W 009°07'0 0.0
2016-Jul-22 07:15N 38°43' W 009°07'0 0.0
2016-Jul-22 03:18N 38°43' W 009°07'0 0.0
2016-Jul-22 02:18N 38°43' W 009°07'0 0.0
2016-Jul-22 01:24N 38°43' W 009°07'0 0.0
2016-Jul-22 00:12N 38°43' W 009°07'0 0.0
2016-Jul-21 23:24N 38°43' W 009°07'0 0.0
2016-Jul-21 22:33N 38°43' W 009°07'0 0.0
2016-Jul-21 21:33N 38°43' W 009°07'2 2.4
2016-Jul-21 20:33N 38°42' W 009°10'5 5.3
2016-Jul-21 19:33N 38°41' W 009°17'3 3.1
2016-Jul-21 18:33N 38°40' W 009°21'3 2.6
2016-Jul-21 17:30N 38°41' W 009°24'0 0.0
2016-Jul-21 16:18N 38°41' W 009°24'0 0.0
2016-Jul-21 15:24N 38°41' W 009°24'0 0.0
2016-Jul-21 14:33N 38°41' W 009°24'4 4.0
2016-Jul-21 13:30N 38°42' W 009°29'5 5.6
2016-Jul-21 12:32N 38°46' W 009°33'6 6.4
2016-Jul-21 11:33N 38°53' W 009°33'6 6.2
2016-Jul-21 10:33N 38°59' W 009°34'  
2016-Jul-16 07:07N 47°37' W 005°57'20 6.7
2016-Jul-16 04:04N 47°54' W 005°42'3 4.7
2016-Jul-16 03:32N 47°57' W 005°40'16 2.6
2016-Jul-15 21:33N 48°12' W 005°34'  
Track history (hours):
 
Tides and Currents Weather Stations Pressure Air Temp Water Temp Dewpoint Dewpoint Depression Visibility Wind Speed Wind Dir Waves Ship Positions

Morgenster

Last reported at 2016-Jul-23 17:07 UTC. Time now 2016-Jul-23 19:15 UTC.
Position N 38°43' W 009°07'.

Length 38 m; draft 2.4 m.

Type: Sailing vessel. MMSI: 245136000.

Date/timePositionNaut miles runAvg speedWind from/ knotsBaromVisibWave heightAir tempDewpointWater temp
2016-Jul-23 17:07N 38°43' W 009°07'0 0.0
2016-Jul-22 20:28N 38°43' W 009°07'0 0.0
2016-Jul-22 17:25N 38°43' W 009°07'0 0.0
2016-Jul-22 16:31N 38°43' W 009°07'0 0.0
2016-Jul-22 15:25N 38°43' W 009°07'0 0.0
2016-Jul-22 14:31N 38°43' W 009°07'0 0.0
2016-Jul-22 07:15N 38°43' W 009°07'0 0.0
2016-Jul-22 03:18N 38°43' W 009°07'0 0.0
2016-Jul-22 02:18N 38°43' W 009°07'0 0.0
2016-Jul-22 01:24N 38°43' W 009°07'0 0.0
2016-Jul-22 00:12N 38°43' W 009°07'0 0.0
2016-Jul-21 23:24N 38°43' W 009°07'0 0.0
2016-Jul-21 22:33N 38°43' W 009°07'0 0.0
2016-Jul-21 21:33N 38°43' W 009°07'2 2.4
2016-Jul-21 20:33N 38°42' W 009°10'5 5.3
2016-Jul-21 19:33N 38°41' W 009°17'3 3.1
2016-Jul-21 18:33N 38°40' W 009°21'3 2.6
2016-Jul-21 17:30N 38°41' W 009°24'0 0.0
2016-Jul-21 16:18N 38°41' W 009°24'0 0.0
2016-Jul-21 15:24N 38°41' W 009°24'0 0.0
2016-Jul-21 14:33N 38°41' W 009°24'4 4.0
2016-Jul-21 13:30N 38°42' W 009°29'5 5.6
2016-Jul-21 12:32N 38°46' W 009°33'6 6.4
2016-Jul-21 11:33N 38°53' W 009°33'6 6.2
2016-Jul-21 10:33N 38°59' W 009°34'  
2016-Jul-16 07:07N 47°37' W 005°57'20 6.7
2016-Jul-16 04:04N 47°54' W 005°42'3 4.7
2016-Jul-16 03:32N 47°57' W 005°40'16 2.6
2016-Jul-15 21:33N 48°12' W 005°34'  

Dump ship's entire track history